createdAt,value
2023-04-29T00:01:25.938Z,11.45
2023-04-29T00:03:54.072Z,11.16
2023-04-29T00:06:21.726Z,11.18
2023-04-29T00:08:49.057Z,11.35
2023-04-29T00:11:16.289Z,11.27
2023-04-29T00:13:43.367Z,11.28
2023-04-29T00:16:11.465Z,11.31
2023-04-29T00:18:38.724Z,11.32
2023-04-29T00:21:06.118Z,11.28
2023-04-29T00:23:36.209Z,11.21
2023-04-29T00:26:03.618Z,11.22
2023-04-29T00:28:30.724Z,11.16
2023-04-29T00:30:57.995Z,11.15
2023-04-29T00:33:25.297Z,11.03
2023-04-29T00:35:52.504Z,11.15
2023-04-29T00:38:19.463Z,11.14
2023-04-29T00:40:46.903Z,11.15
2023-04-29T00:43:13.884Z,11.11
2023-04-29T00:45:40.882Z,11.18
2023-04-29T00:48:08.257Z,11.18
2023-04-29T00:50:36.796Z,11.10
2023-04-29T00:53:04.387Z,11.12
2023-04-29T00:55:32.935Z,11.08
2023-04-29T00:58:00.748Z,11.12
2023-04-29T01:00:28.280Z,11.08
2023-04-29T01:02:57.382Z,11.12
2023-04-29T01:05:25.157Z,10.99
2023-04-29T01:08:21.765Z,10.98
2023-04-29T01:10:53.313Z,10.97
2023-04-29T01:13:38.123Z,11.09
2023-04-29T01:16:17.950Z,11.03
2023-04-29T01:18:54.709Z,10.87
2023-04-29T01:21:22.881Z,10.89
2023-04-29T01:23:56.073Z,11.05
2023-04-29T01:26:24.423Z,11.02
2023-04-29T01:29:09.159Z,10.98
2023-04-29T01:32:05.686Z,11.08
2023-04-29T01:35:18.542Z,11.02
2023-04-29T01:37:55.953Z,11.03
2023-04-29T01:40:24.429Z,10.97
2023-04-29T01:43:03.276Z,10.92
2023-04-29T01:45:34.289Z,10.94
2023-04-29T01:48:02.650Z,10.97
2023-04-29T01:50:30.423Z,10.97
2023-04-29T01:52:57.555Z,11.01
2023-04-29T01:55:24.604Z,10.89
2023-04-29T01:57:52.005Z,10.99
2023-04-29T02:00:19.152Z,10.93
2023-04-29T02:02:46.451Z,11.02
2023-04-29T02:05:13.553Z,10.96
2023-04-29T02:07:41.986Z,10.97
2023-04-29T02:10:09.641Z,11.00
2023-04-29T02:12:36.623Z,10.90
2023-04-29T02:15:04.089Z,11.00
2023-04-29T02:17:31.146Z,11.04
2023-04-29T02:19:58.098Z,10.93
2023-04-29T02:22:25.074Z,10.95
2023-04-29T02:24:52.121Z,10.96
2023-04-29T02:27:19.118Z,11.02
2023-04-29T02:29:46.090Z,10.98
2023-04-29T02:32:15.468Z,10.91
2023-04-29T02:34:42.644Z,10.89
2023-04-29T02:37:09.595Z,10.93
2023-04-29T02:39:36.600Z,10.86
2023-04-29T02:42:03.624Z,10.92
2023-04-29T02:44:31.465Z,10.88
2023-04-29T02:46:59.752Z,10.87
2023-04-29T02:49:27.945Z,10.89
2023-04-29T02:51:54.916Z,10.88
2023-04-29T02:54:21.922Z,10.89
2023-04-29T02:56:48.860Z,10.87
2023-04-29T02:59:16.026Z,10.82
2023-04-29T03:01:43.350Z,10.77
2023-04-29T03:04:10.825Z,10.91
2023-04-29T03:06:38.173Z,10.78
2023-04-29T03:09:05.573Z,10.89
2023-04-29T03:11:32.612Z,10.81
2023-04-29T03:13:59.677Z,10.93
2023-04-29T03:16:28.783Z,10.83
2023-04-29T03:18:55.990Z,10.69
2023-04-29T03:21:22.995Z,10.77
2023-04-29T03:23:50.391Z,10.83
2023-04-29T03:26:17.518Z,10.84
2023-04-29T03:28:44.621Z,10.73
2023-04-29T03:31:12.358Z,10.77
2023-04-29T03:33:39.364Z,10.81
2023-04-29T03:36:08.552Z,10.76
2023-04-29T03:38:35.854Z,10.83
2023-04-29T03:41:03.280Z,10.80
2023-04-29T03:43:30.409Z,10.80
2023-04-29T03:45:57.425Z,10.80
2023-04-29T03:48:24.786Z,10.80
2023-04-29T03:50:51.895Z,10.76
2023-04-29T03:53:19.036Z,10.68
2023-04-29T03:55:53.945Z,10.75
2023-04-29T03:58:20.927Z,10.80
2023-04-29T04:00:48.054Z,10.72
2023-04-29T04:03:15.159Z,10.76
2023-04-29T04:05:42.223Z,10.72
2023-04-29T04:08:09.340Z,10.76
2023-04-29T04:10:37.256Z,10.73
2023-04-29T04:13:04.234Z,10.70
2023-04-29T04:15:31.233Z,10.74
2023-04-29T04:17:58.261Z,10.70
2023-04-29T04:20:25.470Z,10.77
2023-04-29T04:22:54.741Z,10.72
2023-04-29T04:25:21.773Z,10.70
2023-04-29T04:27:48.793Z,10.72
2023-04-29T04:30:27.561Z,10.72
2023-04-29T04:32:54.610Z,10.68
2023-04-29T04:35:21.650Z,10.72
2023-04-29T04:37:48.640Z,10.73
2023-04-29T04:40:20.385Z,10.69
2023-04-29T04:42:47.315Z,10.71
2023-04-29T04:45:14.802Z,10.69
2023-04-29T04:47:42.541Z,10.82
2023-04-29T04:50:10.048Z,10.72
2023-04-29T04:52:37.471Z,10.77
2023-04-29T04:55:04.869Z,10.67
2023-04-29T04:57:31.844Z,10.74
2023-04-29T04:59:59.034Z,10.75
2023-04-29T05:02:26.319Z,10.74
2023-04-29T05:04:55.081Z,10.74
2023-04-29T05:07:22.176Z,10.75
2023-04-29T05:09:49.221Z,10.77
2023-04-29T05:12:16.393Z,10.75
2023-04-29T05:14:43.402Z,10.74
2023-04-29T05:17:11.363Z,10.76
2023-04-29T05:19:38.327Z,10.68
2023-04-29T05:22:05.283Z,10.72
2023-04-29T05:24:32.620Z,10.77
2023-04-29T05:26:59.591Z,10.78
2023-04-29T05:29:27.274Z,10.76
2023-04-29T05:31:54.302Z,10.79
2023-04-29T05:34:21.373Z,10.77
2023-04-29T05:36:48.310Z,10.81
2023-04-29T05:39:15.696Z,10.79
2023-04-29T05:41:42.685Z,10.80
2023-04-29T05:44:09.688Z,10.80
2023-04-29T05:46:36.820Z,10.83
2023-04-29T05:49:03.906Z,10.82
2023-04-29T05:51:31.745Z,10.84
2023-04-29T05:54:00.250Z,10.84
2023-04-29T05:56:27.302Z,10.84
2023-04-29T05:58:54.265Z,10.83
2023-04-29T06:01:21.765Z,10.86
2023-04-29T06:03:48.954Z,10.91
2023-04-29T06:06:16.641Z,10.88
2023-04-29T06:08:43.718Z,10.91
2023-04-29T06:11:10.688Z,10.93
2023-04-29T06:13:37.762Z,10.94
2023-04-29T06:16:05.538Z,10.96
2023-04-29T06:18:32.567Z,10.93
2023-04-29T06:20:59.520Z,11.01
2023-04-29T06:23:26.653Z,10.98
2023-04-29T06:25:53.642Z,10.99
2023-04-29T06:28:20.902Z,10.96
2023-04-29T06:30:47.883Z,11.07
2023-04-29T06:33:15.022Z,11.04
2023-04-29T06:35:42.125Z,11.07
2023-04-29T06:38:09.220Z,11.08
2023-04-29T06:40:36.302Z,11.08
2023-04-29T06:43:04.578Z,11.14
2023-04-29T06:45:31.903Z,11.13
2023-04-29T06:47:58.927Z,11.11
2023-04-29T06:50:26.251Z,11.13
2023-04-29T06:52:53.452Z,11.18
2023-04-29T06:55:20.993Z,11.15
2023-04-29T06:57:48.178Z,11.18
2023-04-29T07:00:16.097Z,11.23
2023-04-29T07:02:43.301Z,11.23
2023-04-29T07:05:10.791Z,11.20
2023-04-29T07:07:37.846Z,11.19
2023-04-29T07:10:05.591Z,11.28
2023-04-29T07:12:32.568Z,11.31
2023-04-29T07:15:00.227Z,11.33
2023-04-29T07:17:31.493Z,11.32
2023-04-29T07:19:58.503Z,11.37
2023-04-29T07:22:26.030Z,11.45
2023-04-29T07:24:57.078Z,11.50
2023-04-29T07:27:24.688Z,11.50
2023-04-29T07:29:51.700Z,11.52
2023-04-29T07:32:18.775Z,11.59
2023-04-29T07:34:45.778Z,11.61
2023-04-29T07:37:12.906Z,11.57
2023-04-29T07:39:39.940Z,11.67
2023-04-29T07:42:06.916Z,11.61
2023-04-29T07:44:33.889Z,11.70
2023-04-29T07:47:00.990Z,11.69
2023-04-29T07:49:28.084Z,11.75
2023-04-29T07:51:55.073Z,11.81
2023-04-29T07:54:22.464Z,11.89
2023-04-29T07:56:49.798Z,11.91
2023-04-29T07:59:16.925Z,11.97
2023-04-29T08:01:44.040Z,11.93
2023-04-29T08:04:11.200Z,12.07
2023-04-29T08:06:38.388Z,12.19
2023-04-29T08:09:05.324Z,12.22
2023-04-29T08:11:32.334Z,12.29
2023-04-29T08:14:00.254Z,12.31
2023-04-29T08:16:28.049Z,12.38
2023-04-29T08:18:55.010Z,12.35
2023-04-29T08:21:22.119Z,12.53
2023-04-29T08:23:49.111Z,12.57
2023-04-29T08:26:17.721Z,12.64
2023-04-29T08:28:45.050Z,12.71
2023-04-29T08:31:21.892Z,12.69
2023-04-29T08:33:49.338Z,12.94
2023-04-29T08:36:16.342Z,12.87
2023-04-29T08:38:43.466Z,13.03
2023-04-29T08:41:10.671Z,13.08
2023-04-29T08:43:37.962Z,13.21
2023-04-29T08:46:05.278Z,13.27
2023-04-29T08:48:32.913Z,13.38
2023-04-29T08:51:01.746Z,13.42
2023-04-29T08:53:29.444Z,13.44
2023-04-29T08:56:01.325Z,13.59
2023-04-29T08:58:29.829Z,13.63
2023-04-29T09:00:57.175Z,13.54
2023-04-29T09:04:01.469Z,13.67
2023-04-29T09:06:28.619Z,13.74
2023-04-29T09:08:56.046Z,13.78
2023-04-29T09:11:23.344Z,13.89
2023-04-29T09:13:50.555Z,13.87
2023-04-29T09:16:17.534Z,13.86
2023-04-29T09:18:52.316Z,13.88
2023-04-29T09:21:24.496Z,13.81
2023-04-29T09:24:00.076Z,13.81
2023-04-29T09:26:28.220Z,14.10
2023-04-29T09:29:18.449Z,14.12
2023-04-29T09:31:47.075Z,14.22
2023-04-29T09:34:14.576Z,14.32
2023-04-29T09:36:51.176Z,14.20
2023-04-29T09:39:22.117Z,14.36
2023-04-29T09:41:54.855Z,14.47
2023-04-29T09:44:29.997Z,14.49
2023-04-29T09:47:09.539Z,14.40
2023-04-29T09:49:38.652Z,14.37
2023-04-29T09:52:08.849Z,14.25
2023-04-29T09:54:38.598Z,14.64
2023-04-29T09:57:07.431Z,14.61
2023-04-29T09:59:37.677Z,14.64
2023-04-29T10:02:15.724Z,14.73
2023-04-29T10:04:45.637Z,14.84
2023-04-29T10:07:17.774Z,14.91
2023-04-29T10:09:49.662Z,15.08
2023-04-29T10:12:19.949Z,15.08
2023-04-29T10:15:02.537Z,15.02
2023-04-29T10:17:49.583Z,15.14
2023-04-29T10:20:24.492Z,15.12
2023-04-29T10:22:54.928Z,15.35
2023-04-29T10:25:24.587Z,15.39
2023-04-29T10:27:54.957Z,15.25
2023-04-29T10:30:22.796Z,15.39
2023-04-29T10:32:52.499Z,15.71
2023-04-29T10:35:25.613Z,15.75
2023-04-29T10:37:56.176Z,15.83
2023-04-29T10:40:48.956Z,15.56
2023-04-29T10:43:16.508Z,15.59
2023-04-29T10:45:43.572Z,15.83
2023-04-29T10:48:13.261Z,15.82
2023-04-29T10:50:45.324Z,15.68
2023-04-29T10:53:12.667Z,15.60
2023-04-29T10:55:40.200Z,15.67
2023-04-29T10:58:52.452Z,16.05
2023-04-29T11:01:39.415Z,16.03
2023-04-29T11:04:06.491Z,16.10
2023-04-29T11:06:36.477Z,16.23
2023-04-29T11:09:34.873Z,16.27
2023-04-29T11:12:06.097Z,16.24
2023-04-29T11:14:40.452Z,16.43
2023-04-29T11:17:14.199Z,16.41
2023-04-29T11:19:51.178Z,16.52
2023-04-29T11:22:18.270Z,16.47
2023-04-29T11:25:02.040Z,15.96
2023-04-29T11:27:35.740Z,16.39
2023-04-29T11:30:06.910Z,16.48
2023-04-29T11:32:45.933Z,16.58
2023-04-29T11:35:13.213Z,16.49
2023-04-29T11:37:42.649Z,16.60
2023-04-29T11:40:11.751Z,16.80
2023-04-29T11:42:45.632Z,16.60
2023-04-29T11:45:13.243Z,16.86
2023-04-29T11:47:46.144Z,17.04
2023-04-29T11:50:16.702Z,16.86
2023-04-29T11:52:44.853Z,16.75
2023-04-29T11:55:12.577Z,16.93
2023-04-29T11:57:40.652Z,16.80
2023-04-29T12:00:13.023Z,16.96
2023-04-29T12:02:44.963Z,17.16
2023-04-29T12:05:13.545Z,17.11
2023-04-29T12:07:41.226Z,17.26
2023-04-29T12:10:11.029Z,17.22
2023-04-29T12:12:44.023Z,17.25
2023-04-29T12:15:12.671Z,17.15
2023-04-29T12:17:40.962Z,17.17
2023-04-29T12:20:12.752Z,17.50
2023-04-29T12:22:41.558Z,17.43
2023-04-29T12:25:09.332Z,17.22
2023-04-29T12:27:39.535Z,17.45
2023-04-29T12:30:10.662Z,17.44
2023-04-29T12:32:38.808Z,17.44
2023-04-29T12:35:06.266Z,17.55
2023-04-29T12:37:35.326Z,17.81
2023-04-29T12:40:02.657Z,17.29
2023-04-29T12:42:34.340Z,17.68
2023-04-29T12:45:01.791Z,17.75
2023-04-29T12:47:37.268Z,17.97
2023-04-29T12:50:07.203Z,18.09
2023-04-29T12:52:36.630Z,17.94
2023-04-29T12:55:04.914Z,18.16
2023-04-29T12:57:32.208Z,17.98
2023-04-29T12:59:59.463Z,17.88
2023-04-29T13:02:26.673Z,18.21
2023-04-29T13:04:54.040Z,18.33
2023-04-29T13:07:21.359Z,18.28
2023-04-29T13:09:48.439Z,17.68
2023-04-29T13:12:15.484Z,18.03
2023-04-29T13:14:43.876Z,18.29
2023-04-29T13:17:11.209Z,18.26
2023-04-29T13:19:50.353Z,18.32
2023-04-29T13:22:19.075Z,18.32
2023-04-29T13:24:46.811Z,18.38
2023-04-29T13:27:13.977Z,18.52
2023-04-29T13:29:41.061Z,18.51
2023-04-29T13:32:09.166Z,18.63
2023-04-29T13:34:36.522Z,18.40
2023-04-29T13:37:03.636Z,18.54
2023-04-29T13:39:30.722Z,18.49
2023-04-29T13:41:59.705Z,18.62
2023-04-29T13:44:34.110Z,18.75
2023-04-29T13:47:06.883Z,18.80
2023-04-29T13:50:09.867Z,18.71
2023-04-29T13:55:14.835Z,18.30
2023-04-29T14:00:31.570Z,18.80
2023-04-29T14:05:27.909Z,18.74
2023-04-29T14:07:55.012Z,18.86
2023-04-29T14:10:22.142Z,18.75
2023-04-29T14:12:49.399Z,18.68
2023-04-29T14:15:16.739Z,18.73
2023-04-29T14:17:43.741Z,18.76
2023-04-29T14:20:11.439Z,18.97
2023-04-29T14:22:38.562Z,19.00
2023-04-29T14:25:06.509Z,18.80
2023-04-29T14:27:34.791Z,18.58
2023-04-29T14:30:02.194Z,19.00
2023-04-29T14:32:29.238Z,18.92
2023-04-29T14:34:56.211Z,18.91
2023-04-29T14:37:23.166Z,19.04
2023-04-29T14:39:50.124Z,18.84
2023-04-29T14:42:18.676Z,18.79
2023-04-29T14:44:45.628Z,18.60
2023-04-29T14:47:12.615Z,18.78
2023-04-29T14:49:39.747Z,18.81
2023-04-29T14:52:06.668Z,18.91
2023-04-29T14:54:33.668Z,18.77
2023-04-29T14:57:00.602Z,18.80
2023-04-29T14:59:30.064Z,18.75
2023-04-29T15:01:57.762Z,18.85
2023-04-29T15:04:24.815Z,18.84
2023-04-29T15:06:52.017Z,18.81
2023-04-29T15:09:19.279Z,18.68
2023-04-29T15:11:46.228Z,18.79
2023-04-29T15:14:13.173Z,18.82
2023-04-29T15:16:40.123Z,18.67
2023-04-29T15:19:07.168Z,18.97
2023-04-29T15:21:34.410Z,18.98
2023-04-29T15:24:03.030Z,19.15
2023-04-29T15:26:30.067Z,19.43
2023-04-29T15:28:57.055Z,19.35
2023-04-29T15:31:25.476Z,19.40
2023-04-29T15:33:55.157Z,19.33
2023-04-29T15:36:35.291Z,19.67
2023-04-29T15:39:02.306Z,19.13
2023-04-29T15:41:29.259Z,19.70
2023-04-29T15:43:57.253Z,19.67
2023-04-29T15:46:24.410Z,19.93
2023-04-29T15:48:51.568Z,19.82
2023-04-29T15:51:18.827Z,19.59
2023-04-29T15:53:45.905Z,19.71
2023-04-29T15:56:13.570Z,19.20
2023-04-29T15:58:40.709Z,19.47
2023-04-29T16:01:07.769Z,19.68
2023-04-29T16:03:34.905Z,19.48
2023-04-29T16:06:02.137Z,19.68
2023-04-29T16:08:29.181Z,19.70
2023-04-29T16:10:56.156Z,19.54
2023-04-29T16:13:24.134Z,19.36
2023-04-29T16:15:51.223Z,19.45
2023-04-29T16:18:19.253Z,19.30
2023-04-29T16:20:46.353Z,19.55
2023-04-29T16:23:13.422Z,19.39
2023-04-29T16:25:41.903Z,19.82
2023-04-29T16:28:09.204Z,19.59
2023-04-29T16:30:36.549Z,19.53
2023-04-29T16:33:03.676Z,19.52
2023-04-29T16:35:31.073Z,19.26
2023-04-29T16:37:58.580Z,18.87
2023-04-29T16:40:25.589Z,19.12
2023-04-29T16:42:53.508Z,19.18
2023-04-29T16:45:23.188Z,19.20
2023-04-29T16:47:51.299Z,18.79
2023-04-29T16:50:18.838Z,18.74
2023-04-29T16:52:45.947Z,18.90
2023-04-29T16:55:13.403Z,18.73
2023-04-29T16:57:40.437Z,18.50
2023-04-29T17:00:14.432Z,18.62
2023-04-29T17:02:43.047Z,18.67
2023-04-29T17:05:11.039Z,18.79
2023-04-29T17:07:39.521Z,18.38
2023-04-29T17:10:08.261Z,18.58
2023-04-29T17:12:35.583Z,18.75
2023-04-29T17:15:02.839Z,18.69
2023-04-29T17:17:30.193Z,18.75
2023-04-29T17:19:57.737Z,18.94
2023-04-29T17:22:24.733Z,18.84
2023-04-29T17:24:51.732Z,19.14
2023-04-29T17:27:18.727Z,19.38
2023-04-29T17:29:46.165Z,19.34
2023-04-29T17:32:15.501Z,19.26
2023-04-29T17:34:42.575Z,19.23
2023-04-29T17:37:10.045Z,19.22
2023-04-29T17:39:37.031Z,19.11
2023-04-29T17:42:04.102Z,19.03
2023-04-29T17:44:31.103Z,18.92
2023-04-29T17:46:58.225Z,19.04
2023-04-29T17:49:25.326Z,19.07
2023-04-29T17:51:52.559Z,18.82
2023-04-29T17:54:19.579Z,18.67
2023-04-29T17:56:46.554Z,18.56
2023-04-29T17:59:13.561Z,18.36
2023-04-29T18:01:40.658Z,18.14
2023-04-29T18:04:07.802Z,18.14
2023-04-29T18:06:35.020Z,17.96
2023-04-29T18:09:02.063Z,17.84
2023-04-29T18:11:29.378Z,17.71
2023-04-29T18:13:56.437Z,17.57
2023-04-29T18:16:23.495Z,17.51
2023-04-29T18:18:56.554Z,17.39
2023-04-29T18:21:25.997Z,17.43
2023-04-29T18:23:53.416Z,17.30
2023-04-29T18:26:20.922Z,17.22
2023-04-29T18:28:48.678Z,17.10
2023-04-29T18:31:17.347Z,17.07
2023-04-29T18:33:45.203Z,16.94
2023-04-29T18:36:14.193Z,16.82
2023-04-29T18:38:41.431Z,16.78
2023-04-29T18:41:08.704Z,16.68
2023-04-29T18:43:36.635Z,16.61
2023-04-29T18:46:03.879Z,16.44
2023-04-29T18:48:31.456Z,16.29
2023-04-29T18:51:00.467Z,16.21
2023-04-29T18:53:27.517Z,16.10
2023-04-29T18:55:54.685Z,15.99
2023-04-29T18:58:22.276Z,15.86
2023-04-29T19:00:49.587Z,15.79
2023-04-29T19:03:16.528Z,15.72
2023-04-29T19:05:43.924Z,15.75
2023-04-29T19:08:11.102Z,15.60
2023-04-29T19:10:38.127Z,15.53
2023-04-29T19:13:05.432Z,15.32
2023-04-29T19:15:32.568Z,15.26
2023-04-29T19:17:59.573Z,15.13
2023-04-29T19:20:27.042Z,15.07
2023-04-29T19:22:54.046Z,15.04
2023-04-29T19:25:21.746Z,15.04
2023-04-29T19:27:49.178Z,14.95
2023-04-29T19:30:16.635Z,14.78
2023-04-29T19:32:46.262Z,14.74
2023-04-29T19:35:13.366Z,14.70
2023-04-29T19:37:40.888Z,14.60
2023-04-29T19:40:10.885Z,14.62
2023-04-29T19:42:39.419Z,14.43
2023-04-29T19:45:08.132Z,14.43
2023-04-29T19:47:36.214Z,14.29
2023-04-29T19:50:05.352Z,14.31
2023-04-29T19:52:32.570Z,14.30
2023-04-29T19:54:59.568Z,14.29
2023-04-29T19:57:28.357Z,14.24
2023-04-29T19:59:55.803Z,14.17
2023-04-29T20:02:23.099Z,14.24
2023-04-29T20:04:50.160Z,14.18
2023-04-29T20:07:18.244Z,14.09
2023-04-29T20:09:45.855Z,13.89
2023-04-29T20:12:12.953Z,13.85
2023-04-29T20:14:40.009Z,13.69
2023-04-29T20:17:07.778Z,13.57
2023-04-29T20:19:34.878Z,13.58
2023-04-29T20:22:01.958Z,13.57
2023-04-29T20:24:29.089Z,13.49
2023-04-29T20:26:56.357Z,13.48
2023-04-29T20:29:23.408Z,13.39
2023-04-29T20:31:50.739Z,13.26
2023-04-29T20:34:17.792Z,13.18
2023-04-29T20:36:44.933Z,13.07
2023-04-29T20:39:11.909Z,12.98
2023-04-29T20:41:38.990Z,13.04
2023-04-29T20:44:06.075Z,12.92
2023-04-29T20:46:33.092Z,12.85
2023-04-29T20:49:00.060Z,12.73
2023-04-29T20:51:27.649Z,12.70
2023-04-29T20:53:54.768Z,12.69
2023-04-29T20:56:21.742Z,12.70
2023-04-29T20:58:48.849Z,12.65
2023-04-29T21:01:15.931Z,12.58
2023-04-29T21:03:43.041Z,12.48
2023-04-29T21:06:10.154Z,12.48
2023-04-29T21:08:37.277Z,12.43
2023-04-29T21:11:05.366Z,12.34
2023-04-29T21:13:32.384Z,12.25
2023-04-29T21:15:59.401Z,12.19
2023-04-29T21:18:26.445Z,12.16
2023-04-29T21:20:53.537Z,12.15
2023-04-29T21:23:20.597Z,12.03
2023-04-29T21:25:47.567Z,11.95
2023-04-29T21:28:16.788Z,12.06
2023-04-29T21:30:44.062Z,12.04
2023-04-29T21:33:11.058Z,11.95
2023-04-29T21:35:41.978Z,11.85
2023-04-29T21:38:09.264Z,11.82
2023-04-29T21:40:41.133Z,11.72
2023-04-29T21:43:10.001Z,11.63
2023-04-29T21:45:37.716Z,11.65
2023-04-29T21:48:18.373Z,11.57
2023-04-29T21:50:46.131Z,11.59
2023-04-29T21:53:16.151Z,11.51
2023-04-29T21:55:43.834Z,11.49
2023-04-29T21:58:11.370Z,11.45
2023-04-29T22:00:41.000Z,11.50
2023-04-29T22:03:09.486Z,11.51
2023-04-29T22:05:37.271Z,11.51
2023-04-29T22:08:07.482Z,11.43
2023-04-29T22:10:34.734Z,11.34
2023-04-29T22:13:01.810Z,11.23
2023-04-29T22:15:29.618Z,11.18
2023-04-29T22:17:57.343Z,11.20
2023-04-29T22:20:25.343Z,11.22
2023-04-29T22:22:52.521Z,11.19
2023-04-29T22:25:21.659Z,11.16
2023-04-29T22:27:49.758Z,11.08
2023-04-29T22:30:17.894Z,10.89
2023-04-29T22:32:45.075Z,10.84
2023-04-29T22:35:12.213Z,10.81
2023-04-29T22:37:39.243Z,10.75
2023-04-29T22:40:07.653Z,10.75
2023-04-29T22:42:34.712Z,10.73
2023-04-29T22:45:01.708Z,10.68
2023-04-29T22:47:29.016Z,10.60
2023-04-29T22:49:56.349Z,10.55
2023-04-29T22:52:23.550Z,10.51
2023-04-29T22:54:50.639Z,10.50
2023-04-29T22:57:17.569Z,10.51
2023-04-29T22:59:44.528Z,10.52
2023-04-29T23:02:11.961Z,10.52
2023-04-29T23:04:39.011Z,10.52
2023-04-29T23:07:06.069Z,10.49
2023-04-29T23:09:33.175Z,10.43
2023-04-29T23:12:00.136Z,10.45
2023-04-29T23:14:27.097Z,10.39
2023-04-29T23:16:54.043Z,10.36
2023-04-29T23:19:21.061Z,10.36
2023-04-29T23:21:48.033Z,10.33
2023-04-29T23:24:15.013Z,10.31
2023-04-29T23:26:41.955Z,10.33
2023-04-29T23:29:08.966Z,10.25
2023-04-29T23:31:36.083Z,10.24
2023-04-29T23:34:03.089Z,10.20
2023-04-29T23:36:30.069Z,10.14
2023-04-29T23:38:57.046Z,10.08
2023-04-29T23:41:24.194Z,10.01
2023-04-29T23:43:51.168Z,9.93
2023-04-29T23:46:18.442Z,9.86
2023-04-29T23:48:45.456Z,9.75
2023-04-29T23:51:12.523Z,9.72
2023-04-29T23:53:40.216Z,9.71
2023-04-29T23:56:07.630Z,9.71
2023-04-29T23:58:34.613Z,9.71
